Time;durP1;ratioP1;P1;durP2;ratioP2;P2;SDS_P1;SDS_P2;PMS_P1;PMS_P2;Temp;Humidity;BMP_temperature;BMP_pressure;BME280_temperature;BME280_humidity;BME280_pressure;Samples;Min_cycle;Max_cycle;Signal;HPM_P1;HPM_P2
2023/11/24 00:01:17;;;;;;;4.40;1.70;;;;;;;-145.69;59.44;52317.66;5074448;28;20218;-79
2023/11/24 00:03:43;;;;;;;2.57;1.63;;;;;;;-145.69;58.94;52343.38;5074890;28;20203;-80
2023/11/24 00:06:11;;;;;;;4.13;2.23;;;;;;;-145.69;59.01;52282.00;5075977;28;20206;-80
2023/11/24 00:08:38;;;;;;;1.90;1.60;;;;;;;-145.69;58.80;52309.72;5074533;28;20235;-80
2023/11/24 00:11:05;;;;;;;5.37;2.03;;;;;;;-145.69;59.06;52303.78;5072793;28;20187;-80
2023/11/24 00:13:31;;;;;;;3.97;1.73;;;;;;;-145.69;59.56;52325.56;5074409;28;20566;-80
2023/11/24 00:15:59;;;;;;;3.37;2.20;;;;;;;-145.69;59.89;52299.81;5075268;28;20202;-79
2023/11/24 00:18:27;;;;;;;4.20;2.00;;;;;;;-145.69;59.21;52278.03;5075008;28;20234;-80
2023/11/24 00:20:53;;;;;;;4.07;2.00;;;;;;;-145.69;59.36;52335.47;5077986;28;20550;-80
2023/11/24 00:23:20;;;;;;;3.17;2.10;;;;;;;-145.69;60.09;52309.72;5074021;28;20206;-80
2023/11/24 00:25:47;;;;;;;4.57;1.90;;;;;;;-145.69;59.74;52313.69;5075764;28;20207;-80
2023/11/24 00:28:14;;;;;;;3.03;2.17;;;;;;;-145.69;59.60;52305.75;5079153;28;20198;-81
2023/11/24 00:30:40;;;;;;;4.17;1.90;;;;;;;-145.69;60.00;52345.38;5078566;28;20256;-80
2023/11/24 00:33:07;;;;;;;7.07;2.00;;;;;;;-145.69;60.64;52327.53;5079723;28;20199;-80
2023/11/24 00:35:35;;;;;;;4.17;2.00;;;;;;;-145.69;60.80;52349.31;5079230;28;20637;-80
2023/11/24 00:38:01;;;;;;;4.23;2.27;;;;;;;-145.69;61.06;52280.00;5078670;28;20205;-80
2023/11/24 00:40:29;;;;;;;3.53;1.83;;;;;;;-145.69;61.44;52325.56;5077794;28;20205;-81
2023/11/24 00:42:55;;;;;;;5.67;1.90;;;;;;;-145.69;61.01;52325.56;5079650;28;20198;-80
2023/11/24 00:45:22;;;;;;;5.20;2.23;;;;;;;-145.69;61.32;52297.84;5081848;28;20195;-80
2023/11/24 00:47:48;;;;;;;2.97;1.40;;;;;;;-145.69;61.09;52305.75;5080573;28;20217;-81
2023/11/24 00:50:16;;;;;;;3.27;1.53;;;;;;;-145.69;61.71;52291.91;5075717;28;20300;-81
2023/11/24 00:52:44;;;;;;;4.30;1.60;;;;;;;-145.69;61.67;52285.97;5075470;28;20202;-81
2023/11/24 00:55:10;;;;;;;2.50;1.70;;;;;;;-145.69;62.06;52329.53;5074295;28;20208;-80
2023/11/24 00:57:37;;;;;;;3.73;1.40;;;;;;;-145.69;61.88;52309.72;5076159;28;20608;-80
2023/11/24 01:00:06;;;;;;;1.30;1.00;;;;;;;-145.69;62.09;52335.47;5078272;28;20214;-81
2023/11/24 01:02:37;;;;;;;2.60;1.40;;;;;;;-145.69;61.86;52325.56;5077828;28;20194;-80
2023/11/24 01:05:04;;;;;;;1.33;1.17;;;;;;;-145.69;62.09;52339.44;5075918;28;20699;-81
2023/11/24 01:07:30;;;;;;;2.57;1.33;;;;;;;-145.69;61.86;52303.78;5076963;28;20238;-81
2023/11/24 01:09:58;;;;;;;2.10;1.23;;;;;;;-145.69;61.10;52309.72;5076025;28;20690;-80
2023/11/24 01:12:25;;;;;;;1.80;1.30;;;;;;;-145.69;60.76;52274.06;5074311;28;20206;-80
2023/11/24 01:14:51;;;;;;;3.03;1.17;;;;;;;-145.69;61.33;52327.53;5074690;28;20195;-81
2023/11/24 01:17:18;;;;;;;1.80;1.40;;;;;;;-145.69;61.20;52305.75;5078712;28;20232;-81
2023/11/24 01:19:45;;;;;;;1.20;1.10;;;;;;;-145.69;61.59;52299.81;5077031;28;20661;-81
2023/11/24 01:22:12;;;;;;;5.47;1.33;;;;;;;-145.69;61.79;52317.66;5082470;28;20220;-80
2023/11/24 01:24:39;;;;;;;1.27;1.00;;;;;;;-145.69;61.93;52347.34;5081089;28;20209;-80
2023/11/24 01:27:06;;;;;;;1.00;0.90;;;;;;;-145.69;62.11;52309.72;5078588;28;20206;-80
2023/11/24 01:29:33;;;;;;;4.33;1.23;;;;;;;-145.69;62.59;52333.47;5078529;28;20589;-80
2023/11/24 01:31:59;;;;;;;1.33;1.10;;;;;;;-145.69;62.71;52278.03;5076992;28;20255;-80
2023/11/24 01:34:26;;;;;;;1.80;1.27;;;;;;;-145.69;62.69;52295.84;5078556;28;20206;-81
2023/11/24 01:36:52;;;;;;;1.10;1.00;;;;;;;-145.69;63.04;52323.59;5076808;28;20199;-81
2023/11/24 01:39:19;;;;;;;1.30;1.10;;;;;;;-145.69;62.24;52301.81;5079292;28;20214;-80
2023/11/24 01:41:45;;;;;;;1.87;1.20;;;;;;;-145.69;62.36;52325.56;5078849;28;20654;-80
2023/11/24 01:44:13;;;;;;;1.13;0.93;;;;;;;-145.69;62.57;52313.69;5075386;28;20203;-81
2023/11/24 01:46:40;;;;;;;1.50;1.00;;;;;;;-145.69;62.24;52321.59;5078890;28;20538;-81
2023/11/24 01:49:07;;;;;;;2.90;1.47;;;;;;;-145.69;62.14;52285.97;5076730;28;20233;-81
2023/11/24 01:51:34;;;;;;;1.63;1.10;;;;;;;-145.69;61.70;52280.00;5059850;28;20717;-81
2023/11/24 01:54:01;;;;;;;1.03;0.93;;;;;;;-145.69;61.73;52317.66;5058762;28;20211;-82
2023/11/24 01:56:30;;;;;;;3.10;1.17;;;;;;;-145.69;61.94;52293.88;5061816;28;20242;-81
2023/11/24 01:58:57;;;;;;;0.97;0.93;;;;;;;-145.69;61.64;52329.53;5058853;28;20199;-80
2023/11/24 02:01:25;;;;;;;2.33;1.10;;;;;;;-145.69;61.37;52305.75;5064709;28;20202;-80
2023/11/24 02:03:52;;;;;;;1.00;0.80;;;;;;;-145.69;61.59;52321.59;5076235;28;20198;-80
2023/11/24 02:06:19;;;;;;;1.13;1.03;;;;;;;-145.69;61.80;52353.28;5076414;28;20708;-81
2023/11/24 02:08:46;;;;;;;0.90;0.90;;;;;;;-145.69;61.73;52305.75;5076533;28;20231;-80
2023/11/24 02:11:13;;;;;;;1.40;1.00;;;;;;;-145.69;61.60;52327.53;5075220;28;20195;-80
2023/11/24 02:13:40;;;;;;;2.47;1.00;;;;;;;-145.69;61.59;52282.00;5077673;28;20199;-80
2023/11/24 02:16:07;;;;;;;1.47;1.20;;;;;;;-145.69;61.09;52331.50;5076689;28;20206;-80
2023/11/24 02:18:35;;;;;;;1.30;0.83;;;;;;;-145.69;61.01;52274.06;5076832;28;20207;-81
2023/11/24 02:21:02;;;;;;;1.67;0.77;;;;;;;-145.69;60.67;52321.59;5076373;28;20727;-80
2023/11/24 02:23:31;;;;;;;0.83;0.73;;;;;;;-145.69;60.56;52341.41;5075699;28;20202;-80
2023/11/24 02:25:57;;;;;;;1.03;0.70;;;;;;;-145.69;60.64;52323.59;5075645;28;20202;-80
2023/11/24 02:28:24;;;;;;;0.80;0.80;;;;;;;-145.69;61.27;52323.59;5075994;28;20195;-80
2023/11/24 02:30:50;;;;;;;1.80;0.80;;;;;;;-145.69;60.83;52297.84;5077162;28;20238;-80
2023/11/24 02:33:18;;;;;;;1.53;0.80;;;;;;;-145.69;60.43;52323.59;5075894;28;20199;-80
2023/11/24 02:35:45;;;;;;;2.07;0.93;;;;;;;-145.69;61.01;52285.97;5077142;28;20293;-81
2023/11/24 02:38:11;;;;;;;2.40;0.90;;;;;;;-145.69;61.42;52327.53;5076562;28;20437;-81
2023/11/24 02:40:42;;;;;;;0.70;0.70;;;;;;;-145.69;61.13;52309.72;5067768;28;20195;-80
2023/11/24 02:43:09;;;;;;;1.63;0.90;;;;;;;-145.69;60.34;52307.75;5057377;28;20239;-80
2023/11/24 02:45:36;;;;;;;0.70;0.70;;;;;;;-145.69;60.66;52321.59;5056972;28;20215;-80
2023/11/24 02:48:02;;;;;;;0.97;0.87;;;;;;;-145.69;60.31;52293.88;5076501;28;20560;-81
2023/11/24 02:50:28;;;;;;;0.90;0.87;;;;;;;-145.69;60.85;52323.59;5076060;28;20226;-80
2023/11/24 02:52:55;;;;;;;1.00;0.90;;;;;;;-145.69;61.81;52325.56;5075163;28;20199;-81
2023/11/24 02:55:22;;;;;;;1.00;0.90;;;;;;;-145.69;62.22;52303.78;5074986;28;20202;-80
2023/11/24 02:57:49;;;;;;;1.13;0.80;;;;;;;-145.69;62.24;52305.75;5074861;28;20558;-80
2023/11/24 03:00:17;;;;;;;1.10;0.80;;;;;;;-145.69;62.21;52307.75;5075994;28;20562;-80
2023/11/24 03:02:44;;;;;;;1.10;0.70;;;;;;;-145.69;62.09;52301.81;5076951;28;20199;-80
2023/11/24 03:05:11;;;;;;;0.87;0.77;;;;;;;-145.69;62.68;52274.06;5076209;28;20195;-80
2023/11/24 03:07:38;;;;;;;0.70;0.70;;;;;;;-145.69;61.98;52333.47;5075549;28;20308;-80
2023/11/24 03:10:05;;;;;;;0.80;0.80;;;;;;;-145.69;62.05;52309.72;5078080;28;20222;-80
2023/11/24 03:12:32;;;;;;;0.77;0.70;;;;;;;-145.69;61.99;52301.81;5078093;28;20206;-81
2023/11/24 03:14:59;;;;;;;1.07;0.87;;;;;;;-145.69;61.51;52268.13;5080275;28;20658;-81
2023/11/24 03:17:26;;;;;;;0.70;0.70;;;;;;;-145.69;61.48;52329.53;5076708;28;20203;-81
2023/11/24 03:19:52;;;;;;;0.63;0.63;;;;;;;-145.69;60.85;52301.81;5080165;28;20206;-80
2023/11/24 03:22:19;;;;;;;0.50;0.50;;;;;;;-145.69;60.90;52317.66;5078804;28;20203;-81
2023/11/24 03:24:45;;;;;;;1.13;0.47;;;;;;;-145.69;60.07;52282.00;5079017;28;20207;-81
2023/11/24 03:27:12;;;;;;;0.80;0.80;;;;;;;-145.69;60.23;52327.53;5079300;28;20199;-81
2023/11/24 03:29:38;;;;;;;1.43;0.60;;;;;;;-145.69;60.71;52293.88;5079129;28;20219;-80
2023/11/24 03:32:06;;;;;;;0.60;0.60;;;;;;;-145.69;60.75;52317.66;5075832;28;20199;-80
2023/11/24 03:34:33;;;;;;;0.93;0.60;;;;;;;-145.69;60.69;52274.06;5075474;28;20198;-80
2023/11/24 03:36:59;;;;;;;0.67;0.60;;;;;;;-145.69;60.72;52307.75;5075090;28;20209;-80
2023/11/24 03:39:27;;;;;;;0.60;0.60;;;;;;;-145.69;60.26;52321.59;5078290;28;20549;-80
2023/11/24 03:41:53;;;;;;;2.00;0.50;;;;;;;-145.69;60.84;52309.72;5076396;28;20202;-81
2023/11/24 03:44:20;;;;;;;0.60;0.60;;;;;;;-145.69;60.89;52317.66;5075444;28;20207;-81
2023/11/24 03:46:47;;;;;;;0.60;0.60;;;;;;;-145.69;60.46;52309.72;5073271;28;20199;-81
2023/11/24 03:49:14;;;;;;;0.60;0.60;;;;;;;-145.69;61.52;52325.56;5075515;28;20210;-81
2023/11/24 03:51:41;;;;;;;1.10;0.73;;;;;;;-145.69;61.17;52305.75;5076670;28;20590;-81
2023/11/24 03:54:08;;;;;;;0.87;0.70;;;;;;;-145.69;60.46;52287.94;5077933;28;20199;-81
2023/11/24 03:56:34;;;;;;;0.70;0.70;;;;;;;-145.69;60.47;52270.13;5078337;28;20203;-81
2023/11/24 03:59:01;;;;;;;1.67;0.60;;;;;;;-145.69;60.97;52297.84;5077839;28;20273;-81
2023/11/24 04:01:27;;;;;;;2.77;1.47;;;;;;;-145.69;60.48;52289.91;5076086;28;20203;-80
2023/11/24 04:03:55;;;;;;;0.83;0.70;;;;;;;-145.69;60.21;52317.66;5076360;28;20203;-81
2023/11/24 04:06:24;;;;;;;2.43;0.60;;;;;;;-145.69;60.26;52323.59;5075314;28;20724;-80
2023/11/24 04:08:51;;;;;;;1.00;0.90;;;;;;;-145.69;60.02;52337.44;5077752;28;20219;-81
2023/11/24 04:11:18;;;;;;;1.73;1.13;;;;;;;-145.69;nan;52307.75;5077100;28;20280;-81
2023/11/24 04:13:45;;;;;;;1.07;0.60;;;;;;;-145.69;60.89;52303.78;5080074;28;20207;-80
2023/11/24 04:16:13;;;;;;;1.70;0.90;;;;;;;-145.69;60.68;52301.81;5079625;28;20229;-81
2023/11/24 04:18:39;;;;;;;0.60;0.60;;;;;;;-145.69;60.94;52297.84;5076127;28;20203;-80
2023/11/24 04:21:06;;;;;;;1.10;0.50;;;;;;;-145.69;61.03;52309.72;5078502;28;20209;-80
2023/11/24 04:23:34;;;;;;;0.50;0.50;;;;;;;-145.69;60.74;52305.75;5077410;28;20260;-81
2023/11/24 04:26:00;;;;;;;1.40;0.50;;;;;;;-145.69;60.84;52333.47;5078121;28;20199;-80
2023/11/24 04:28:27;;;;;;;0.70;0.63;;;;;;;-145.69;60.56;52315.66;5077412;28;20221;-80
2023/11/24 04:30:53;;;;;;;0.57;0.57;;;;;;;-145.69;60.51;52303.78;5076751;28;20231;-81
2023/11/24 04:33:20;;;;;;;0.60;0.60;;;;;;;-145.69;61.49;52299.81;5075960;28;20206;-81
2023/11/24 04:35:47;;;;;;;0.40;0.40;;;;;;;-145.69;61.36;52323.59;5073832;28;20242;-81
2023/11/24 04:38:14;;;;;;;0.60;0.60;;;;;;;-145.69;61.22;52329.53;5075849;28;20210;-81
2023/11/24 04:40:42;;;;;;;0.60;0.60;;;;;;;-145.69;62.06;52315.66;5057411;28;20203;-80
2023/11/24 04:43:09;;;;;;;1.50;0.50;;;;;;;-145.69;61.58;52297.84;5053644;28;20207;-80
2023/11/24 04:45:36;;;;;;;0.80;0.50;;;;;;;-145.69;62.20;52319.63;5054358;28;20211;-80
2023/11/24 04:48:02;;;;;;;0.60;0.60;;;;;;;-145.69;62.91;52309.72;5058245;28;20204;-81
2023/11/24 04:50:29;;;;;;;0.70;0.70;;;;;;;-145.69;63.01;52329.53;5054583;28;20266;-80
2023/11/24 04:52:55;;;;;;;0.50;0.50;;;;;;;-145.69;63.43;52329.53;5053921;28;20559;-81
2023/11/24 04:55:22;;;;;;;0.40;0.40;;;;;;;-145.69;64.30;52301.81;5054041;28;20199;-80
2023/11/24 04:57:50;;;;;;;0.50;0.50;;;;;;;-145.69;64.08;52305.75;5053344;28;20209;-80
2023/11/24 05:00:18;;;;;;;0.50;0.50;;;;;;;-145.69;64.37;52305.75;5055957;28;20202;-80
2023/11/24 05:02:44;;;;;;;0.50;0.50;;;;;;;-145.69;64.66;52307.75;5068691;28;20198;-80
2023/11/24 05:05:11;;;;;;;0.50;0.50;;;;;;;-145.69;65.29;52305.75;5073065;28;20215;-80
2023/11/24 05:07:38;;;;;;;0.70;0.70;;;;;;;-145.69;65.58;52287.94;5072998;28;20269;-80
2023/11/24 05:10:05;;;;;;;0.50;0.50;;;;;;;-145.69;65.93;52321.59;5071440;28;20214;-80
2023/11/24 05:12:32;;;;;;;0.53;0.53;;;;;;;-145.69;66.12;52321.59;5072326;28;20198;-80
2023/11/24 05:15:00;;;;;;;1.80;0.60;;;;;;;-145.69;65.81;52301.81;5072839;28;20199;-79
2023/11/24 05:17:26;;;;;;;0.57;0.50;;;;;;;-145.69;65.86;52349.31;5072644;28;20249;-80
2023/11/24 05:19:53;;;;;;;0.50;0.50;;;;;;;-145.69;66.43;52331.50;5072212;28;20203;-79
2023/11/24 05:22:19;;;;;;;0.50;0.50;;;;;;;-145.69;66.46;52305.75;5072813;28;20198;-80
2023/11/24 05:24:46;;;;;;;0.40;0.40;;;;;;;-145.69;66.37;52357.25;5072631;28;20199;-80
2023/11/24 05:27:12;;;;;;;0.68;0.68;;;;;;;-145.69;66.71;52339.44;5072624;28;20086;-79
2023/11/24 05:29:39;;;;;;;1.43;0.57;;;;;;;-145.69;67.35;52353.28;5073795;28;20210;-80
2023/11/24 05:32:07;;;;;;;0.60;0.60;;;;;;;-145.69;66.71;52333.47;5076213;28;20523;-80
2023/11/24 05:34:33;;;;;;;0.77;0.70;;;;;;;-145.69;67.40;52357.25;5076852;28;20199;-81
2023/11/24 05:37:05;;;;;;;0.80;0.80;;;;;;;-145.69;67.15;52331.50;5075515;28;20241;-79
2023/11/24 05:39:31;;;;;;;0.77;0.70;;;;;;;-145.69;67.40;52341.41;5076659;28;20610;-80
2023/11/24 05:41:58;;;;;;;1.07;0.70;;;;;;;-145.69;67.18;52333.47;5076393;28;20207;-79
2023/11/24 05:44:24;;;;;;;0.90;0.90;;;;;;;-145.69;67.63;52317.66;5076336;28;20202;-80
2023/11/24 05:46:51;;;;;;;2.10;0.70;;;;;;;-145.69;67.82;52321.59;5076279;28;20206;-79
2023/11/24 05:49:19;;;;;;;1.33;0.70;;;;;;;-145.69;67.32;52295.84;5076340;28;20799;-79
2023/11/24 05:51:46;;;;;;;1.27;0.80;;;;;;;-145.69;67.40;52333.47;5069956;28;20686;-80
2023/11/24 05:54:12;;;;;;;1.00;0.90;;;;;;;-145.69;67.34;52321.59;5056209;28;20207;-79
2023/11/24 05:56:39;;;;;;;0.73;0.73;;;;;;;-145.69;67.60;52325.56;5056145;28;20218;-80
2023/11/24 05:59:05;;;;;;;2.40;1.10;;;;;;;-145.69;67.94;52347.34;5055918;28;20230;-80
2023/11/24 06:01:33;;;;;;;0.50;0.50;;;;;;;-145.69;68.27;52293.88;5060747;28;20194;-80
2023/11/24 06:03:59;;;;;;;1.70;0.70;;;;;;;-145.69;67.77;52329.53;5076152;28;20199;-80
2023/11/24 06:06:27;;;;;;;1.50;0.83;;;;;;;-145.69;67.50;52325.56;5075347;28;20199;-80
2023/11/24 06:08:53;;;;;;;0.70;0.70;;;;;;;-145.69;67.71;52297.84;5075814;28;20257;-80
2023/11/24 06:11:20;;;;;;;0.60;0.60;;;;;;;-145.69;67.54;52321.59;5075441;28;20713;-79
2023/11/24 06:13:47;;;;;;;0.60;0.60;;;;;;;-145.69;67.38;52339.44;5075877;28;20290;-80
2023/11/24 06:16:13;;;;;;;0.50;0.50;;;;;;;-145.69;67.18;52327.53;5076032;28;20207;-79
2023/11/24 06:18:40;;;;;;;2.10;0.67;;;;;;;-145.69;67.31;52301.81;5075802;28;20700;-80
2023/11/24 06:21:10;;;;;;;0.50;0.50;;;;;;;-145.69;67.31;52351.31;5075898;28;20230;-80
2023/11/24 06:23:38;;;;;;;0.80;0.80;;;;;;;-145.69;67.28;52311.69;5075971;28;20198;-80
2023/11/24 06:26:05;;;;;;;0.70;0.70;;;;;;;-145.69;66.94;52325.56;5075471;28;20199;-80
2023/11/24 06:28:31;;;;;;;0.87;0.70;;;;;;;-145.69;66.29;52337.44;5075330;28;20693;-80
2023/11/24 06:30:58;;;;;;;0.60;0.60;;;;;;;-145.69;65.73;52317.66;5075534;28;20230;-79
2023/11/24 06:33:25;;;;;;;0.80;0.70;;;;;;;-145.69;65.78;52359.22;5075637;28;20210;-80
2023/11/24 06:35:51;;;;;;;0.63;0.63;;;;;;;-145.69;66.08;52317.66;5069322;28;20205;-81
2023/11/24 06:38:18;;;;;;;0.90;0.80;;;;;;;-145.69;65.67;52303.78;5055714;28;20199;-80
2023/11/24 06:40:46;;;;;;;1.13;0.70;;;;;;;-145.69;65.48;52313.69;5054733;28;20207;-80
2023/11/24 06:43:13;;;;;;;0.73;0.50;;;;;;;-145.69;65.90;52335.47;5056510;28;20566;-80
2023/11/24 06:45:39;;;;;;;0.80;0.60;;;;;;;-145.69;66.38;52341.41;5054230;28;20439;-80
2023/11/24 06:48:06;;;;;;;0.90;0.77;;;;;;;-145.69;65.21;52343.38;5055297;28;20200;-80
2023/11/24 06:50:33;;;;;;;0.97;0.97;;;;;;;-145.69;64.99;52309.72;5055091;28;20226;-80
2023/11/24 06:52:59;;;;;;;0.80;0.80;;;;;;;-145.69;65.08;52341.41;5055154;28;20195;-80
2023/11/24 06:55:26;;;;;;;0.80;0.80;;;;;;;-145.69;64.87;52341.41;5055024;28;20677;-80
2023/11/24 06:57:53;;;;;;;0.70;0.70;;;;;;;-145.69;65.04;52321.59;5054961;28;20208;-80
2023/11/24 07:00:20;;;;;;;0.77;0.77;;;;;;;-145.69;65.62;52333.47;5057698;28;20199;-80
2023/11/24 07:02:48;;;;;;;1.30;1.07;;;;;;;-145.69;65.42;52347.34;5055057;28;20200;-80
2023/11/24 07:05:15;;;;;;;10.13;3.10;;;;;;;-145.69;64.76;52343.38;5055897;28;20659;-80
2023/11/24 07:07:41;;;;;;;2.07;1.40;;;;;;;-145.69;64.88;52319.63;5074478;28;20223;-80
2023/11/24 07:10:11;;;;;;;1.27;0.90;;;;;;;-145.69;64.54;52321.59;5074619;28;20693;-80
2023/11/24 07:12:38;;;;;;;0.70;0.70;;;;;;;-145.69;64.34;52321.59;5075274;28;20229;-80
2023/11/24 07:15:07;;;;;;;2.47;1.13;;;;;;;-145.69;63.94;52347.34;5074210;28;20195;-80
2023/11/24 07:17:33;;;;;;;3.30;0.90;;;;;;;-145.69;64.02;52303.78;5074481;28;20199;-80
2023/11/24 07:20:00;;;;;;;0.87;0.80;;;;;;;-145.69;64.27;52307.75;5074657;28;20202;-80
2023/11/24 07:22:27;;;;;;;0.90;0.90;;;;;;;-145.69;63.55;52305.75;5074599;28;20205;-80
2023/11/24 07:24:55;;;;;;;2.10;1.10;;;;;;;-145.69;63.44;52355.28;5074386;28;20668;-80
2023/11/24 07:27:21;;;;;;;2.17;1.10;;;;;;;-145.69;63.81;52349.31;5074611;28;20199;-79
2023/11/24 07:29:48;;;;;;;1.97;1.03;;;;;;;-145.69;63.32;52309.72;5074576;28;20217;-80
2023/11/24 07:32:16;;;;;;;2.93;1.07;;;;;;;-145.69;63.81;52343.38;5074487;28;20230;-80
2023/11/24 07:34:44;;;;;;;1.47;1.23;;;;;;;-145.69;63.46;52355.28;5074463;28;20282;-80
2023/11/24 07:37:10;;;;;;;1.70;1.23;;;;;;;-145.69;63.11;52333.47;5073745;28;20542;-80
2023/11/24 07:39:37;;;;;;;1.33;1.10;;;;;;;-145.69;63.09;52325.56;5074444;28;20203;-80
2023/11/24 07:42:04;;;;;;;5.63;1.17;;;;;;;-145.69;62.67;52305.75;5074183;28;20246;-80
2023/11/24 07:44:31;;;;;;;0.97;0.90;;;;;;;-145.69;62.18;52337.44;5074250;28;20282;-80
2023/11/24 07:46:57;;;;;;;2.33;1.50;;;;;;;-145.69;62.02;52293.88;5073855;28;20289;-80
2023/11/24 07:49:26;;;;;;;1.47;0.93;;;;;;;-145.69;61.86;52315.66;5073955;28;20198;-80
2023/11/24 07:51:52;;;;;;;1.53;1.00;;;;;;;-145.69;62.41;52282.00;5067517;28;20574;-81
2023/11/24 07:54:19;;;;;;;1.00;0.90;;;;;;;-145.69;62.41;52297.84;5054220;28;20385;-80
2023/11/24 07:56:45;;;;;;;0.87;0.83;;;;;;;-145.69;62.14;52321.59;5054236;28;20207;-80
2023/11/24 07:59:12;;;;;;;1.10;1.00;;;;;;;-145.69;62.42;52331.50;5054196;28;20206;-80
2023/11/24 08:01:39;;;;;;;1.87;1.10;;;;;;;-145.69;62.47;52289.91;5054191;28;20230;-81
2023/11/24 08:04:06;;;;;;;0.93;0.93;;;;;;;-145.69;62.51;52309.72;5053743;28;20200;-80
2023/11/24 08:06:34;;;;;;;1.27;1.17;;;;;;;-145.69;63.42;52293.88;5066032;28;20198;-80
2023/11/24 08:09:03;;;;;;;2.70;1.20;;;;;;;-145.69;63.36;52329.53;5073730;28;20748;-80
2023/11/24 08:11:30;;;;;;;0.80;0.80;;;;;;;-145.69;63.00;52327.53;5073768;28;20222;-79
2023/11/24 08:13:56;;;;;;;1.33;1.20;;;;;;;-145.69;63.85;52329.53;5073574;28;20204;-79
2023/11/24 08:16:23;;;;;;;1.37;1.23;;;;;;;-145.69;63.92;52333.47;5073485;28;20277;-80
2023/11/24 08:18:50;;;;;;;1.83;1.03;;;;;;;-145.69;65.17;52343.38;5073628;28;20260;-79
2023/11/24 08:21:17;;;;;;;1.43;1.00;;;;;;;-145.69;65.41;52341.41;5073592;28;20214;-80
2023/11/24 08:23:45;;;;;;;1.43;1.10;;;;;;;-145.69;65.71;52321.59;5073468;28;20195;-80
2023/11/24 08:26:15;;;;;;;1.20;1.10;;;;;;;-145.69;66.05;52321.59;5073376;28;20195;-80
2023/11/24 08:28:42;;;;;;;2.80;1.30;;;;;;;-145.69;66.23;52278.03;5073299;28;20206;-79
2023/11/24 08:31:10;;;;;;;1.30;1.17;;;;;;;-145.69;67.09;52353.28;5073214;28;20652;-79
2023/11/24 08:33:36;;;;;;;1.30;1.10;;;;;;;-145.69;66.62;52295.84;5073371;28;20230;-80
2023/11/24 08:36:03;;;;;;;1.43;1.10;;;;;;;-145.69;66.74;52321.59;5072778;28;20202;-79
2023/11/24 08:38:29;;;;;;;3.93;1.00;;;;;;;-145.69;66.96;52341.41;5073372;28;20234;-79
2023/11/24 08:40:57;;;;;;;0.80;0.80;;;;;;;-145.69;66.82;52309.72;5073278;28;20199;-79
2023/11/24 08:43:23;;;;;;;2.37;0.80;;;;;;;-145.69;66.30;52335.47;5073151;28;20206;-80
2023/11/24 08:45:50;;;;;;;1.90;1.47;;;;;;;-145.69;66.15;52321.59;5073046;28;20207;-80
2023/11/24 08:48:16;;;;;;;1.70;1.10;;;;;;;-145.69;66.78;52345.38;5073211;28;20240;-79
2023/11/24 08:50:43;;;;;;;1.03;0.97;;;;;;;-145.69;66.85;52347.34;5073014;28;20206;-80
2023/11/24 08:53:09;;;;;;;1.27;0.90;;;;;;;-145.69;66.26;52327.53;5072917;28;20194;-80
2023/11/24 08:55:36;;;;;;;0.60;0.60;;;;;;;-145.69;66.39;52325.56;5073127;28;20198;-79
2023/11/24 08:58:04;;;;;;;0.43;0.43;;;;;;;-145.69;65.95;52337.44;5071735;28;20684;-80
2023/11/24 09:00:31;;;;;;;0.77;0.70;;;;;;;-145.69;66.28;52341.41;5072913;28;20209;-79
2023/11/24 09:02:59;;;;;;;1.30;0.93;;;;;;;-145.69;65.95;52301.81;5072799;28;20206;-79
2023/11/24 09:05:26;;;;;;;4.70;2.33;;;;;;;-145.69;66.16;52341.41;5064880;28;20242;-78
2023/11/24 09:07:53;;;;;;;4.60;1.83;;;;;;;-145.69;65.51;52327.53;5072603;28;20234;-79
2023/11/24 09:10:19;;;;;;;3.10;1.30;;;;;;;-145.69;66.19;52333.47;5072960;28;20262;-83
2023/11/24 09:12:46;;;;;;;6.17;1.73;;;;;;;-145.69;65.95;52317.66;5072646;28;20253;-79
2023/11/24 09:15:14;;;;;;;1.90;1.20;;;;;;;-145.69;66.00;52359.22;5070227;28;20229;-79
2023/11/24 09:17:41;;;;;;;0.70;0.70;;;;;;;-145.69;65.78;52329.53;5072720;28;20198;-80
2023/11/24 09:20:11;;;;;;;0.80;0.80;;;;;;;-145.69;65.68;52301.81;5072346;28;20198;-81
2023/11/24 09:22:38;;;;;;;1.00;1.00;;;;;;;-145.69;65.59;52349.31;5072588;28;20210;-81
2023/11/24 09:25:08;;;;;;;4.47;1.60;;;;;;;-145.69;65.55;52341.41;5056459;28;20245;-81
2023/11/24 09:27:35;;;;;;;1.47;1.07;;;;;;;-145.69;66.08;52357.25;5052455;28;20206;-81
2023/11/24 09:30:04;;;;;;;1.03;0.93;;;;;;;-145.69;65.60;52313.69;5052356;28;20195;-81
2023/11/24 09:32:34;;;;;;;2.60;0.93;;;;;;;-145.69;65.67;52307.75;5053166;28;20720;-81
2023/11/24 09:35:02;;;;;;;1.13;1.03;;;;;;;-145.69;65.72;52341.41;5068926;28;20199;-81
2023/11/24 09:37:28;;;;;;;3.43;1.10;;;;;;;-145.69;64.82;52313.69;5072271;28;20205;-81
2023/11/24 09:39:54;;;;;;;6.00;1.10;;;;;;;-145.69;64.54;52321.59;5072153;28;20202;-81
2023/11/24 09:42:23;;;;;;;1.60;1.10;;;;;;;-145.69;64.70;52335.47;5072605;28;20566;-81
2023/11/24 09:44:54;;;;;;;4.40;1.20;;;;;;;-145.69;64.19;52309.72;5072301;28;20227;-81
2023/11/24 09:47:28;;;;;;;3.17;1.40;;;;;;;-145.69;64.27;52341.41;5072354;28;20207;-81
2023/11/24 09:49:59;;;;;;;6.57;1.77;;;;;;;-145.69;64.07;52301.81;5069731;28;20206;-82
2023/11/24 09:52:27;;;;;;;5.28;1.42;;;;;;;-145.69;65.57;52325.56;5051448;28;20485;-82
2023/11/24 09:54:58;;;;;;;9.23;1.40;;;;;;;-145.69;64.79;52363.19;5065187;28;20209;-82
2023/11/24 09:57:25;;;;;;;5.07;2.20;;;;;;;-145.69;64.80;52311.69;5072203;28;20205;-82
2023/11/24 09:59:52;;;;;;;2.20;1.30;;;;;;;-145.69;65.34;52301.81;5071995;28;20203;-82
2023/11/24 10:02:24;;;;;;;6.97;1.33;;;;;;;-145.69;65.67;52327.53;5071539;28;20205;-81
2023/11/24 10:04:50;;;;;;;3.37;1.37;;;;;;;-145.69;66.23;52347.34;5060135;28;20196;-82
2023/11/24 10:07:22;;;;;;;2.00;1.23;;;;;;;-145.69;66.14;52325.56;5051762;28;20204;-81
2023/11/24 10:09:49;;;;;;;1.83;0.93;;;;;;;-145.69;65.78;52327.53;5052114;28;20191;-82
2023/11/24 10:12:16;;;;;;;5.33;1.17;;;;;;;-145.69;66.35;52307.75;5052046;28;20224;-82
2023/11/24 10:14:44;;;;;;;2.37;1.60;;;;;;;-145.69;66.15;52357.25;5052003;28;20195;-82
2023/11/24 10:17:10;;;;;;;1.27;0.97;;;;;;;-145.69;66.37;52337.44;5055522;28;20203;-82
2023/11/24 10:19:37;;;;;;;1.87;1.33;;;;;;;-145.69;66.32;52349.31;5055495;28;20199;-80
2023/11/24 10:22:04;;;;;;;0.90;0.90;;;;;;;-145.69;66.42;52339.44;5055268;28;20748;-80
2023/11/24 10:24:37;;;;;;;2.90;1.70;;;;;;;-145.69;66.32;52327.53;5055358;28;20662;-81
2023/11/24 10:27:19;;;;;;;2.80;1.73;;;;;;;-145.69;65.23;52309.72;5055388;28;20290;-80
2023/11/24 10:29:48;;;;;;;2.20;1.20;;;;;;;-145.69;65.48;52337.44;5055460;28;20653;-80
2023/11/24 10:32:14;;;;;;;1.87;1.00;;;;;;;-145.69;65.69;52311.69;5064312;28;20218;-81
2023/11/24 10:34:42;;;;;;;6.53;1.30;;;;;;;-145.69;66.31;52349.31;5075934;28;20585;-81
2023/11/24 10:37:12;;;;;;;4.00;2.43;;;;;;;-145.69;66.13;52337.44;5075447;28;20206;-80
2023/11/24 10:39:45;;;;;;;5.83;1.70;;;;;;;-145.69;66.68;52331.50;5075478;28;20226;-82
2023/11/24 10:42:15;;;;;;;15.57;1.83;;;;;;;-145.69;66.33;52355.28;5075393;28;20206;-82
2023/11/24 10:44:43;;;;;;;10.47;2.03;;;;;;;-145.69;66.62;52357.25;5075509;28;20198;-82
2023/11/24 10:47:13;;;;;;;15.27;2.63;;;;;;;-145.69;66.97;52313.69;5075548;28;20226;-81
2023/11/24 10:49:43;;;;;;;12.33;2.93;;;;;;;-145.69;66.65;52351.31;5075504;28;20297;-81
2023/11/24 10:52:20;;;;;;;15.07;2.65;;;;;;;-145.69;67.30;52349.31;5074933;28;20503;-83
2023/11/24 10:54:57;;;;;;;10.43;2.33;;;;;;;-145.69;66.22;52357.25;5075686;28;20202;-81
2023/11/24 10:57:25;;;;;;;14.57;3.03;;;;;;;-145.69;66.50;52369.13;5075546;28;20213;-81
2023/11/24 10:59:52;;;;;;;9.77;2.67;;;;;;;-145.69;66.38;52361.22;5075251;28;20289;-81
2023/11/24 11:02:20;;;;;;;8.87;2.07;;;;;;;-145.69;65.89;52329.53;5074949;28;20199;-81
2023/11/24 11:04:55;;;;;;;13.97;2.30;;;;;;;-145.69;66.20;52333.47;5071910;28;20223;-81
2023/11/24 11:07:27;;;;;;;12.13;2.20;;;;;;;-145.69;65.43;52390.91;5074883;28;20309;-82
2023/11/24 11:10:02;;;;;;;12.33;2.73;;;;;;;-145.69;65.40;52337.44;5075141;28;20209;-81
2023/11/24 11:12:39;;;;;;;8.30;2.60;;;;;;;-145.69;65.55;52357.25;5074805;28;20230;-81
2023/11/24 11:15:09;;;;;;;13.73;2.33;;;;;;;-145.69;65.44;52345.38;5074506;28;20285;-82
2023/11/24 11:17:38;;;;;;;7.20;2.10;;;;;;;-145.69;64.68;52327.53;5074579;28;20209;-81